2W6

St Mary's County Regional Airport

Leonardtown, Maryland, USA
METAR K2W6 132243Z AUTO 30003KT 10SM OVC060 08/03 A3014 RMK AO1
Observed Flight Rules
Nov-13 @ 22:43 UTC (23 minutes ago) Visual Flight Rules
Wind Visibility Clouds
300° at 3 knots 10 miles
  • Overcast at 6,000' AGL
Temperatures Readings
Current 8°C / 46°F
Dewpoint 3°C / 37°F
Humidity 71%
Altimeter 30.14" Hg
Pressure 1021 hPa
Elevation 44
METAR K2W6 132243Z AUTO 30003KT 10SM OVC060 08/03 A3014 RMK AO1
Observed Flight Rules
Nov-13 @ 22:43 UTC
(23 minutes ago)
VFR
Wind Visibility
300° at 3 knots 10 miles
Clouds
  • Overcast at 6,000' AGL
Temperature Dewpoint
8°C / 46°F 3°C / 37°F
Humidity Altimeter Pressure
71% 30.14" Hg 1021 hPa